Flight Track Log - Related Links

Times and Time Zones

All times are in EDT time to prevent confusion due to time zone crossing. See the N904DJ flight status page for this flight to view local times or setup timezone preferences in your user account.

Time Position Orientation Groundspeed Altitude Reporting Facility
EDT Latitude Longitude Course Direction KTS MPH feet Rate Location/Type
Wed 06:25:54 PM 46.9756 -96.8444 270° West 145 167 2,800  Level Minneapolis Center
Wed 06:26:56 PM 46.9722 -96.9100 266° West 157 181 3,800 1,016 Climbing Minneapolis Center
Wed 06:27:58 PM 46.9803 -96.9775 280° West 160 184 4,900 1,065 Climbing Minneapolis Center
Wed 06:29:00 PM 46.9931 -97.0442 286° West 163 188 6,000 1,113 Climbing Minneapolis Center
Wed 06:30:02 PM 46.9975 -97.1122 275° West 162 186 7,200 1,065 Climbing Minneapolis Center
Wed 06:31:00 PM 46.9667 -97.3088 270° West  Level FlightAware Approximate
Wed 06:31:04 PM 47.0011 -97.1808 274° West 162 186 8,200  Level Minneapolis Center
Wed 06:32:06 PM 47.0072 -97.2481 278° West 158 182 9,200 968 Climbing Minneapolis Center
Wed 06:33:08 PM 47.0131 -97.3103 278° West 160 184 10,200 919 Climbing Minneapolis Center
Wed 06:34:10 PM 47.0189 -97.3778 277° West 161 185 11,100 871 Climbing Minneapolis Center
Wed 06:35:12 PM 47.0242 -97.4450 277° West 161 185 12,000 435 Climbing Minneapolis Center
Wed 06:36:14 PM 47.0308 -97.5233 277° West 184 212 12,000  Level Minneapolis Center
Wed 06:37:17 PM 47.0378 -97.6114 277° West 204 235 12,000  Level Minneapolis Center
Wed 06:38:19 PM 47.0453 -97.7028 277° West 216 249 12,000  Level Minneapolis Center
Wed 06:39:21 PM 47.0536 -97.7944 278° West 217 250 12,000  Level Minneapolis Center
Wed 06:40:23 PM 47.0661 -97.8653 285° West 216 249 12,000 48 Level Minneapolis Center
Wed 06:41:25 PM 47.0914 -97.9636 291° West 216 249 12,100 48 Climbing Minneapolis Center
Wed 06:42:27 PM 47.1003 -98.0500 279° West 214 246 12,100 -48 Level Minneapolis Center
Wed 06:43:29 PM 47.0992 -98.1372 269° West 214 246 12,000  Descending Minneapolis Center
Wed 06:44:31 PM 47.0944 -98.2258 266° West 216 249 12,100  Climbing Minneapolis Center
Wed 06:45:33 PM 47.0919 -98.3136 268° West 216 249 12,000  Descending Minneapolis Center
Wed 06:46:35 PM 47.0908 -98.4011 269° West 215 247 12,100 48 Climbing Minneapolis Center
Wed 06:47:37 PM 47.0917 -98.5053 271° West 214 246 12,100  Level Minneapolis Center
Wed 06:48:40 PM 47.0928 -98.5933 271° West 215 247 12,100 48 Level Minneapolis Center
Wed 06:49:42 PM 47.0844 -98.6794 262° West 215 247 12,200  Climbing Minneapolis Center
Wed 06:50:44 PM 47.0739 -98.7658 260° West 215 247 12,100  Descending Minneapolis Center
Wed 06:51:46 PM 47.0675 -98.8536 264° West 216 249 12,200  Climbing Minneapolis Center
Wed 06:52:48 PM 47.0561 -98.9386 259° West 215 247 12,100 -97 Descending Minneapolis Center
Wed 06:53:50 PM 47.0578 -99.0247 272° West 214 246 12,000 -48 Descending Minneapolis Center
Wed 06:54:52 PM 47.1086 -99.0964 316° Northwest 215 247 12,000  Level Minneapolis Center
Wed 06:55:54 PM 47.1597 -99.1372 331° Northwest 209 241 12,000  Level Minneapolis Center
Wed 06:56:56 PM 47.1900 -99.2083 302° West 213 245 12,000  Level Minneapolis Center
Wed 06:57:58 PM 47.1869 -99.2922 267° West 212 244 12,000  Level Minneapolis Center
Wed 06:59:01 PM 47.1667 -99.3764 251° West 216 249 12,000  Level Minneapolis Center
Wed 07:00:05 PM 47.1492 -99.4786 256° West 217 250 12,000  Level Minneapolis Center
Wed 07:01:07 PM 47.1711 -99.5633 291° West 219 252 12,000  Level Minneapolis Center
Wed 07:02:09 PM 47.1939 -99.6419 293° West 215 247 12,000  Level Minneapolis Center
Wed 07:03:11 PM 47.1981 -99.7328 274° West 219 252 12,000 48 Level Minneapolis Center
Wed 07:04:13 PM 47.1931 -99.8211 265° West 220 253 12,100 48 Climbing Minneapolis Center
Wed 07:05:16 PM 47.1992 -99.9264 275° West 217 250 12,100  Level Minneapolis Center
Wed 07:06:18 PM 47.2114 -100.0131 282° West 215 247 12,100  Level Minneapolis Center
Wed 07:07:20 PM 47.2144 -100.1017 273° West 216 249 12,100  Level Minneapolis Center
Wed 07:08:22 PM 47.2192 -100.1894 275° West 217 250 12,100  Level Minneapolis Center
Wed 07:09:24 PM 47.2225 -100.2767 273° West 217 250 12,100  Level Minneapolis Center
Wed 07:10:26 PM 47.2292 -100.3647 276° West 215 247 12,100  Level Minneapolis Center
Wed 07:11:28 PM 47.2336 -100.4667 274° West 213 245 12,100  Level Minneapolis Center
Wed 07:12:30 PM 47.2381 -100.5550 274° West 215 247 12,100  Level Minneapolis Center
Wed 07:13:32 PM 47.2439 -100.6406 276° West 213 245 12,100 -387 Level Minneapolis Center
Wed 07:14:34 PM 47.2506 -100.7308 276° West 216 249 11,300 -823 Descending Minneapolis Center
Wed 07:15:36 PM 47.2556 -100.8236 275° West 222 255 10,400 -912 Descending Minneapolis Center
Wed 07:16:39 PM 47.2575 -100.9361 272° West 230 265 9,400 -912 Descending Minneapolis Center
Wed 07:17:41 PM 47.2619 -101.0297 274° West 228 262 8,500 -871 Descending Minneapolis Center
Wed 07:18:43 PM 47.2672 -101.1200 275° West 221 254 7,600 -919 Descending Minneapolis Center
Wed 07:19:45 PM 47.2711 -101.2083 274° West 217 250 6,600 -968 Descending Minneapolis Center
Wed 07:21:00 PM 47.2675 -101.3096 267° West  Level FlightAware Approximate
Wed 07:28:00 PM 47.2833 -101.5667 270° West  Level FlightAware Approximate
Wed 07:29:00 PM 47.2899 -101.5810 270° West  Level Estimated
Wed 07:30:00 PM 47.2899 -101.5810 270° West  Level Estimated
Wed 07:31:00 PM 47.2899 -101.5810 270° West  Level Estimated
Wed 07:32:00 PM 47.2899 -101.5810 270° West  Level Estimated
Wed 07:33:00 PM 47.2899 -101.5810 270° West  Level Estimated
Wed 07:34:00 PM 47.2899 -101.5810 270° West  Level Estimated
Wed 07:35:00 PM 47.2899 -101.5810 270° West  Level Estimated
Wed 07:36:00 PM 47.2899 -101.5810 270° West  Level Estimated
Wed 07:37:00 PM 47.2899 -101.5810 270° West  Level Estimated
Wed 07:38:00 PM 47.2899 -101.5810 270° West  Level Estimated
Wed 07:39:00 PM 47.2899 -101.5810 270° West  Level Estimated
Wed 07:40:00 PM 47.2899 -101.5810 270° West  Level Estimated

Login

Don't have an account? Register now (free) for customized features, flight alerts, and more!